sensor_id;sensor_type;location;lat;lon;timestamp;temperature;humidity
59881;DHT22;45751;51.380;10.326;2023-05-29T00:02:12;15.60;61.20
59881;DHT22;45751;51.380;10.326;2023-05-29T00:04:39;15.60;61.40
59881;DHT22;45751;51.380;10.326;2023-05-29T00:07:07;15.60;61.60
59881;DHT22;45751;51.380;10.326;2023-05-29T00:09:34;15.70;62.00
59881;DHT22;45751;51.380;10.326;2023-05-29T00:12:00;15.60;62.00
59881;DHT22;45751;51.380;10.326;2023-05-29T00:14:27;15.70;62.00
59881;DHT22;45751;51.380;10.326;2023-05-29T00:16:54;15.70;62.20
59881;DHT22;45751;51.380;10.326;2023-05-29T00:19:22;15.70;62.20
59881;DHT22;45751;51.380;10.326;2023-05-29T00:21:50;15.60;62.50
59881;DHT22;45751;51.380;10.326;2023-05-29T00:24:17;15.60;62.70
59881;DHT22;45751;51.380;10.326;2023-05-29T00:26:44;15.50;62.40
59881;DHT22;45751;51.380;10.326;2023-05-29T00:29:11;15.50;62.80
59881;DHT22;45751;51.380;10.326;2023-05-29T00:31:38;15.50;63.50
59881;DHT22;45751;51.380;10.326;2023-05-29T00:34:05;15.50;64.10
59881;DHT22;45751;51.380;10.326;2023-05-29T00:36:34;15.40;64.30
59881;DHT22;45751;51.380;10.326;2023-05-29T00:39:01;15.40;64.20
59881;DHT22;45751;51.380;10.326;2023-05-29T00:41:28;15.30;64.60
59881;DHT22;45751;51.380;10.326;2023-05-29T00:43:55;15.30;64.90
59881;DHT22;45751;51.380;10.326;2023-05-29T00:46:21;15.20;66.30
59881;DHT22;45751;51.380;10.326;2023-05-29T00:48:49;15.20;66.70
59881;DHT22;45751;51.380;10.326;2023-05-29T00:51:17;15.20;65.70
59881;DHT22;45751;51.380;10.326;2023-05-29T00:53:44;15.10;66.00
59881;DHT22;45751;51.380;10.326;2023-05-29T00:56:12;15.10;66.40
59881;DHT22;45751;51.380;10.326;2023-05-29T00:58:41;15.10;66.60
59881;DHT22;45751;51.380;10.326;2023-05-29T01:01:08;15.10;67.00
59881;DHT22;45751;51.380;10.326;2023-05-29T01:03:36;15.00;67.10
59881;DHT22;45751;51.380;10.326;2023-05-29T01:06:03;15.00;67.40
59881;DHT22;45751;51.380;10.326;2023-05-29T01:08:30;14.90;67.80
59881;DHT22;45751;51.380;10.326;2023-05-29T01:11:12;14.90;68.00
59881;DHT22;45751;51.380;10.326;2023-05-29T01:13:44;14.80;68.90
59881;DHT22;45751;51.380;10.326;2023-05-29T01:16:23;14.80;68.50
59881;DHT22;45751;51.380;10.326;2023-05-29T01:27:03;14.60;69.20
59881;DHT22;45751;51.380;10.326;2023-05-29T01:29:34;14.60;69.20
59881;DHT22;45751;51.380;10.326;2023-05-29T01:32:02;14.50;69.40
59881;DHT22;45751;51.380;10.326;2023-05-29T01:34:29;14.50;69.80
59881;DHT22;45751;51.380;10.326;2023-05-29T01:36:56;14.40;70.20
59881;DHT22;45751;51.380;10.326;2023-05-29T01:39:24;14.40;70.80
59881;DHT22;45751;51.380;10.326;2023-05-29T01:41:52;14.30;70.80
59881;DHT22;45751;51.380;10.326;2023-05-29T01:44:21;14.40;70.90
59881;DHT22;45751;51.380;10.326;2023-05-29T01:46:49;14.40;70.30
59881;DHT22;45751;51.380;10.326;2023-05-29T01:49:17;14.30;70.70
59881;DHT22;45751;51.380;10.326;2023-05-29T01:51:44;14.30;72.70
59881;DHT22;45751;51.380;10.326;2023-05-29T01:54:11;14.20;71.30
59881;DHT22;45751;51.380;10.326;2023-05-29T01:56:38;14.20;71.90
59881;DHT22;45751;51.380;10.326;2023-05-29T01:59:05;14.20;71.90
59881;DHT22;45751;51.380;10.326;2023-05-29T02:01:33;14.10;71.90
59881;DHT22;45751;51.380;10.326;2023-05-29T02:04:00;14.00;72.40
59881;DHT22;45751;51.380;10.326;2023-05-29T02:06:27;14.00;72.70
59881;DHT22;45751;51.380;10.326;2023-05-29T02:08:54;13.90;73.00
59881;DHT22;45751;51.380;10.326;2023-05-29T02:11:21;13.90;73.00
59881;DHT22;45751;51.380;10.326;2023-05-29T02:13:48;13.90;73.10
59881;DHT22;45751;51.380;10.326;2023-05-29T02:16:16;13.80;73.20
59881;DHT22;45751;51.380;10.326;2023-05-29T02:18:44;13.70;73.60
59881;DHT22;45751;51.380;10.326;2023-05-29T02:21:11;13.60;74.10
59881;DHT22;45751;51.380;10.326;2023-05-29T02:23:39;13.50;74.50
59881;DHT22;45751;51.380;10.326;2023-05-29T02:26:06;13.50;75.10
59881;DHT22;45751;51.380;10.326;2023-05-29T02:28:34;13.40;75.20
59881;DHT22;45751;51.380;10.326;2023-05-29T02:31:02;13.40;75.50
59881;DHT22;45751;51.380;10.326;2023-05-29T02:33:29;13.30;75.80
59881;DHT22;45751;51.380;10.326;2023-05-29T02:35:56;13.30;76.60
59881;DHT22;45751;51.380;10.326;2023-05-29T02:38:23;13.20;76.90
59881;DHT22;45751;51.380;10.326;2023-05-29T02:40:50;13.20;76.90
59881;DHT22;45751;51.380;10.326;2023-05-29T02:43:17;13.20;76.70
59881;DHT22;45751;51.380;10.326;2023-05-29T02:45:44;13.10;76.50
59881;DHT22;45751;51.380;10.326;2023-05-29T02:48:11;13.00;76.80
59881;DHT22;45751;51.380;10.326;2023-05-29T02:50:38;13.00;77.40
59881;DHT22;45751;51.380;10.326;2023-05-29T02:53:05;12.90;77.40
59881;DHT22;45751;51.380;10.326;2023-05-29T02:55:32;12.90;77.60
59881;DHT22;45751;51.380;10.326;2023-05-29T02:58:02;12.80;78.20
59881;DHT22;45751;51.380;10.326;2023-05-29T03:00:29;12.70;78.80
59881;DHT22;45751;51.380;10.326;2023-05-29T03:02:57;12.60;79.30
59881;DHT22;45751;51.380;10.326;2023-05-29T03:05:25;12.60;80.00
59881;DHT22;45751;51.380;10.326;2023-05-29T03:07:52;12.70;80.40
59881;DHT22;45751;51.380;10.326;2023-05-29T03:10:19;12.60;80.80
59881;DHT22;45751;51.380;10.326;2023-05-29T03:12:47;12.60;80.80
59881;DHT22;45751;51.380;10.326;2023-05-29T03:15:14;12.50;81.80
59881;DHT22;45751;51.380;10.326;2023-05-29T03:17:41;12.40;82.80
59881;DHT22;45751;51.380;10.326;2023-05-29T03:20:12;12.40;83.20
59881;DHT22;45751;51.380;10.326;2023-05-29T03:22:43;12.40;83.70
59881;DHT22;45751;51.380;10.326;2023-05-29T03:25:10;12.40;83.80
59881;DHT22;45751;51.380;10.326;2023-05-29T03:27:37;12.30;84.40
59881;DHT22;45751;51.380;10.326;2023-05-29T03:30:09;12.30;85.00
59881;DHT22;45751;51.380;10.326;2023-05-29T03:32:37;12.30;85.70
59881;DHT22;45751;51.380;10.326;2023-05-29T03:35:05;12.30;85.90
59881;DHT22;45751;51.380;10.326;2023-05-29T03:37:32;12.30;86.40
59881;DHT22;45751;51.380;10.326;2023-05-29T03:39:59;12.30;88.10
59881;DHT22;45751;51.380;10.326;2023-05-29T03:42:26;12.30;87.40
59881;DHT22;45751;51.380;10.326;2023-05-29T03:44:54;12.30;88.00
59881;DHT22;45751;51.380;10.326;2023-05-29T03:47:22;12.30;88.40
59881;DHT22;45751;51.380;10.326;2023-05-29T03:49:51;12.20;88.80
59881;DHT22;45751;51.380;10.326;2023-05-29T03:52:18;12.20;89.00
59881;DHT22;45751;51.380;10.326;2023-05-29T03:54:45;12.30;89.40
59881;DHT22;45751;51.380;10.326;2023-05-29T03:57:12;12.20;89.60
59881;DHT22;45751;51.380;10.326;2023-05-29T03:59:39;12.20;90.50
59881;DHT22;45751;51.380;10.326;2023-05-29T04:02:06;12.20;90.20
59881;DHT22;45751;51.380;10.326;2023-05-29T04:04:34;12.20;90.10
59881;DHT22;45751;51.380;10.326;2023-05-29T04:07:02;12.20;90.30
59881;DHT22;45751;51.380;10.326;2023-05-29T04:09:28;12.20;90.20
59881;DHT22;45751;51.380;10.326;2023-05-29T04:11:56;12.20;90.20
59881;DHT22;45751;51.380;10.326;2023-05-29T04:14:23;12.20;90.30
59881;DHT22;45751;51.380;10.326;2023-05-29T04:16:49;12.20;90.50
59881;DHT22;45751;51.380;10.326;2023-05-29T04:19:17;12.20;90.50
59881;DHT22;45751;51.380;10.326;2023-05-29T04:21:44;12.20;90.60
59881;DHT22;45751;51.380;10.326;2023-05-29T04:24:12;12.10;90.90
59881;DHT22;45751;51.380;10.326;2023-05-29T04:26:38;12.20;91.00
59881;DHT22;45751;51.380;10.326;2023-05-29T04:29:08;12.20;91.10
59881;DHT22;45751;51.380;10.326;2023-05-29T04:31:39;12.20;91.10
59881;DHT22;45751;51.380;10.326;2023-05-29T04:34:06;12.30;91.10
59881;DHT22;45751;51.380;10.326;2023-05-29T04:36:34;12.20;91.20
59881;DHT22;45751;51.380;10.326;2023-05-29T04:39:10;12.20;91.50
59881;DHT22;45751;51.380;10.326;2023-05-29T04:41:37;12.20;91.60
59881;DHT22;45751;51.380;10.326;2023-05-29T04:44:07;12.20;91.80
59881;DHT22;45751;51.380;10.326;2023-05-29T04:46:43;12.20;91.80
59881;DHT22;45751;51.380;10.326;2023-05-29T04:49:11;12.20;91.70
59881;DHT22;45751;51.380;10.326;2023-05-29T04:51:39;12.20;91.70
59881;DHT22;45751;51.380;10.326;2023-05-29T04:54:10;12.30;91.90
59881;DHT22;45751;51.380;10.326;2023-05-29T04:56:39;12.30;92.20
59881;DHT22;45751;51.380;10.326;2023-05-29T04:59:12;12.40;91.70
59881;DHT22;45751;51.380;10.326;2023-05-29T05:01:39;12.40;91.60
59881;DHT22;45751;51.380;10.326;2023-05-29T05:04:10;12.40;91.70
59881;DHT22;45751;51.380;10.326;2023-05-29T05:06:37;12.50;91.70
59881;DHT22;45751;51.380;10.326;2023-05-29T05:09:05;12.50;91.70
59881;DHT22;45751;51.380;10.326;2023-05-29T05:11:32;12.60;91.60
59881;DHT22;45751;51.380;10.326;2023-05-29T05:13:59;12.60;91.40
59881;DHT22;45751;51.380;10.326;2023-05-29T05:16:27;12.60;91.60
59881;DHT22;45751;51.380;10.326;2023-05-29T05:18:54;12.60;91.60
59881;DHT22;45751;51.380;10.326;2023-05-29T05:21:21;12.60;91.20
59881;DHT22;45751;51.380;10.326;2023-05-29T05:23:47;12.70;90.90
59881;DHT22;45751;51.380;10.326;2023-05-29T05:26:25;12.80;91.00
59881;DHT22;45751;51.380;10.326;2023-05-29T05:28:55;12.80;90.80
59881;DHT22;45751;51.380;10.326;2023-05-29T05:31:24;12.80;90.40
59881;DHT22;45751;51.380;10.326;2023-05-29T05:33:52;12.90;90.30
59881;DHT22;45751;51.380;10.326;2023-05-29T05:36:19;12.90;90.20
59881;DHT22;45751;51.380;10.326;2023-05-29T05:38:51;12.90;90.10
59881;DHT22;45751;51.380;10.326;2023-05-29T05:41:18;13.00;90.10
59881;DHT22;45751;51.380;10.326;2023-05-29T05:43:45;13.00;89.80
59881;DHT22;45751;51.380;10.326;2023-05-29T05:46:32;13.10;89.70
59881;DHT22;45751;51.380;10.326;2023-05-29T05:48:59;13.10;89.40
59881;DHT22;45751;51.380;10.326;2023-05-29T05:51:27;13.10;88.60
59881;DHT22;45751;51.380;10.326;2023-05-29T05:53:55;13.10;88.90
59881;DHT22;45751;51.380;10.326;2023-05-29T05:56:22;13.10;90.50
59881;DHT22;45751;51.380;10.326;2023-05-29T05:58:50;13.20;90.90
59881;DHT22;45751;51.380;10.326;2023-05-29T06:01:19;13.20;91.10
59881;DHT22;45751;51.380;10.326;2023-05-29T06:03:45;13.20;91.30
59881;DHT22;45751;51.380;10.326;2023-05-29T06:06:13;13.20;91.30
59881;DHT22;45751;51.380;10.326;2023-05-29T06:08:42;13.20;91.40
59881;DHT22;45751;51.380;10.326;2023-05-29T06:11:10;13.20;91.30
59881;DHT22;45751;51.380;10.326;2023-05-29T06:13:39;13.30;91.30
59881;DHT22;45751;51.380;10.326;2023-05-29T06:16:16;13.30;91.60
59881;DHT22;45751;51.380;10.326;2023-05-29T06:18:43;13.30;91.90
59881;DHT22;45751;51.380;10.326;2023-05-29T06:21:12;13.40;91.70
59881;DHT22;45751;51.380;10.326;2023-05-29T06:23:44;13.40;91.70
59881;DHT22;45751;51.380;10.326;2023-05-29T06:26:11;13.40;91.80
59881;DHT22;45751;51.380;10.326;2023-05-29T06:28:39;13.40;92.00
59881;DHT22;45751;51.380;10.326;2023-05-29T06:31:06;13.50;91.60
59881;DHT22;45751;51.380;10.326;2023-05-29T06:33:34;13.50;91.70
59881;DHT22;45751;51.380;10.326;2023-05-29T06:36:01;13.50;91.50
59881;DHT22;45751;51.380;10.326;2023-05-29T06:38:29;13.60;91.60
59881;DHT22;45751;51.380;10.326;2023-05-29T06:40:57;13.60;91.70
59881;DHT22;45751;51.380;10.326;2023-05-29T06:43:24;13.60;91.90
59881;DHT22;45751;51.380;10.326;2023-05-29T06:45:56;13.70;91.90
59881;DHT22;45751;51.380;10.326;2023-05-29T06:48:23;13.70;91.70
59881;DHT22;45751;51.380;10.326;2023-05-29T06:50:50;13.70;91.60
59881;DHT22;45751;51.380;10.326;2023-05-29T06:53:35;13.80;91.60
59881;DHT22;45751;51.380;10.326;2023-05-29T06:56:04;13.80;91.30
59881;DHT22;45751;51.380;10.326;2023-05-29T06:58:33;13.90;91.20
59881;DHT22;45751;51.380;10.326;2023-05-29T07:01:00;13.90;91.00
59881;DHT22;45751;51.380;10.326;2023-05-29T07:03:33;13.90;90.80
59881;DHT22;45751;51.380;10.326;2023-05-29T07:06:02;14.00;90.20
59881;DHT22;45751;51.380;10.326;2023-05-29T07:08:31;14.00;89.30
59881;DHT22;45751;51.380;10.326;2023-05-29T07:10:58;14.00;88.70
59881;DHT22;45751;51.380;10.326;2023-05-29T07:13:25;14.10;89.00
59881;DHT22;45751;51.380;10.326;2023-05-29T07:15:54;14.10;89.40
59881;DHT22;45751;51.380;10.326;2023-05-29T07:18:28;14.10;89.20
59881;DHT22;45751;51.380;10.326;2023-05-29T07:20:56;14.20;90.00
59881;DHT22;45751;51.380;10.326;2023-05-29T07:23:25;14.20;88.10
59881;DHT22;45751;51.380;10.326;2023-05-29T07:25:55;14.30;88.10
59881;DHT22;45751;51.380;10.326;2023-05-29T07:28:24;14.30;88.20
59881;DHT22;45751;51.380;10.326;2023-05-29T07:30:52;14.30;88.60
59881;DHT22;45751;51.380;10.326;2023-05-29T07:33:19;14.40;88.70
59881;DHT22;45751;51.380;10.326;2023-05-29T07:35:47;14.40;87.90
59881;DHT22;45751;51.380;10.326;2023-05-29T07:38:15;14.50;86.20
59881;DHT22;45751;51.380;10.326;2023-05-29T07:40:42;14.50;85.00
59881;DHT22;45751;51.380;10.326;2023-05-29T07:43:12;14.60;84.50
59881;DHT22;45751;51.380;10.326;2023-05-29T07:45:49;14.60;84.10
59881;DHT22;45751;51.380;10.326;2023-05-29T07:48:16;14.70;83.30
59881;DHT22;45751;51.380;10.326;2023-05-29T07:50:43;14.70;82.90
59881;DHT22;45751;51.380;10.326;2023-05-29T07:53:10;14.80;82.00
59881;DHT22;45751;51.380;10.326;2023-05-29T07:55:38;14.80;81.90
59881;DHT22;45751;51.380;10.326;2023-05-29T07:58:05;14.90;81.80
59881;DHT22;45751;51.380;10.326;2023-05-29T08:00:33;15.00;81.80
59881;DHT22;45751;51.380;10.326;2023-05-29T08:03:03;15.00;82.40
59881;DHT22;45751;51.380;10.326;2023-05-29T08:05:30;15.10;80.50
59881;DHT22;45751;51.380;10.326;2023-05-29T08:08:05;15.10;79.80
59881;DHT22;45751;51.380;10.326;2023-05-29T08:10:34;15.10;79.60
59881;DHT22;45751;51.380;10.326;2023-05-29T08:13:02;15.20;79.90
59881;DHT22;45751;51.380;10.326;2023-05-29T08:15:31;15.30;79.40
59881;DHT22;45751;51.380;10.326;2023-05-29T08:17:59;15.30;78.70
59881;DHT22;45751;51.380;10.326;2023-05-29T08:20:27;15.30;78.10
59881;DHT22;45751;51.380;10.326;2023-05-29T08:22:54;15.50;77.40
59881;DHT22;45751;51.380;10.326;2023-05-29T08:25:20;15.50;77.20
59881;DHT22;45751;51.380;10.326;2023-05-29T08:27:47;15.50;77.40
59881;DHT22;45751;51.380;10.326;2023-05-29T08:30:14;15.60;77.30
59881;DHT22;45751;51.380;10.326;2023-05-29T08:32:41;15.60;75.90
59881;DHT22;45751;51.380;10.326;2023-05-29T08:35:08;15.70;74.90
59881;DHT22;45751;51.380;10.326;2023-05-29T08:37:35;15.70;76.00
59881;DHT22;45751;51.380;10.326;2023-05-29T08:40:03;15.80;76.30
59881;DHT22;45751;51.380;10.326;2023-05-29T08:42:39;15.80;77.20
59881;DHT22;45751;51.380;10.326;2023-05-29T08:45:10;15.90;76.80
59881;DHT22;45751;51.380;10.326;2023-05-29T08:47:40;15.90;76.20
59881;DHT22;45751;51.380;10.326;2023-05-29T08:50:12;16.00;75.70
59881;DHT22;45751;51.380;10.326;2023-05-29T08:52:41;16.10;75.20
59881;DHT22;45751;51.380;10.326;2023-05-29T08:55:09;16.10;74.50
59881;DHT22;45751;51.380;10.326;2023-05-29T08:57:36;16.20;74.70
59881;DHT22;45751;51.380;10.326;2023-05-29T09:00:06;16.20;74.40
59881;DHT22;45751;51.380;10.326;2023-05-29T09:02:39;16.20;72.60
59881;DHT22;45751;51.380;10.326;2023-05-29T09:05:06;16.30;72.20
59881;DHT22;45751;51.380;10.326;2023-05-29T09:07:34;16.30;73.00
59881;DHT22;45751;51.380;10.326;2023-05-29T09:10:01;16.40;73.30
59881;DHT22;45751;51.380;10.326;2023-05-29T09:12:28;16.40;71.80
59881;DHT22;45751;51.380;10.326;2023-05-29T09:14:55;16.40;72.70
59881;DHT22;45751;51.380;10.326;2023-05-29T09:17:21;16.50;71.30
59881;DHT22;45751;51.380;10.326;2023-05-29T09:19:50;16.50;71.60
59881;DHT22;45751;51.380;10.326;2023-05-29T09:22:16;16.60;72.30
59881;DHT22;45751;51.380;10.326;2023-05-29T09:24:47;16.70;70.60
59881;DHT22;45751;51.380;10.326;2023-05-29T09:27:15;16.60;69.70
59881;DHT22;45751;51.380;10.326;2023-05-29T09:29:44;16.60;73.20
59881;DHT22;45751;51.380;10.326;2023-05-29T09:32:16;16.60;75.10
59881;DHT22;45751;51.380;10.326;2023-05-29T09:34:46;16.60;75.30
59881;DHT22;45751;51.380;10.326;2023-05-29T09:37:13;16.60;76.00
59881;DHT22;45751;51.380;10.326;2023-05-29T09:42:12;16.60;76.50
59881;DHT22;45751;51.380;10.326;2023-05-29T09:44:40;16.60;75.60
59881;DHT22;45751;51.380;10.326;2023-05-29T09:47:07;16.60;76.70
59881;DHT22;45751;51.380;10.326;2023-05-29T09:49:40;16.50;77.00
59881;DHT22;45751;51.380;10.326;2023-05-29T09:52:08;16.50;76.30
59881;DHT22;45751;51.380;10.326;2023-05-29T09:54:35;16.50;75.00
59881;DHT22;45751;51.380;10.326;2023-05-29T09:57:03;16.60;74.90
59881;DHT22;45751;51.380;10.326;2023-05-29T09:59:33;16.60;76.00
59881;DHT22;45751;51.380;10.326;2023-05-29T10:02:02;16.60;77.20
59881;DHT22;45751;51.380;10.326;2023-05-29T10:04:38;16.60;76.60
59881;DHT22;45751;51.380;10.326;2023-05-29T10:09:50;16.70;76.30
59881;DHT22;45751;51.380;10.326;2023-05-29T10:12:20;16.80;77.80
59881;DHT22;45751;51.380;10.326;2023-05-29T10:14:49;16.80;76.00
59881;DHT22;45751;51.380;10.326;2023-05-29T10:17:23;16.90;74.40
59881;DHT22;45751;51.380;10.326;2023-05-29T10:19:52;17.00;76.60
59881;DHT22;45751;51.380;10.326;2023-05-29T10:22:20;17.00;73.30
59881;DHT22;45751;51.380;10.326;2023-05-29T10:24:50;17.10;74.40
59881;DHT22;45751;51.380;10.326;2023-05-29T10:27:18;17.10;74.80
59881;DHT22;45751;51.380;10.326;2023-05-29T10:30:37;17.10;74.10
59881;DHT22;45751;51.380;10.326;2023-05-29T10:38:15;17.30;73.10
59881;DHT22;45751;51.380;10.326;2023-05-29T10:40:45;17.30;72.90
59881;DHT22;45751;51.380;10.326;2023-05-29T10:43:42;17.30;73.00
59881;DHT22;45751;51.380;10.326;2023-05-29T10:46:11;17.40;73.00
59881;DHT22;45751;51.380;10.326;2023-05-29T10:48:40;17.40;71.90
59881;DHT22;45751;51.380;10.326;2023-05-29T10:51:08;17.50;72.70
59881;DHT22;45751;51.380;10.326;2023-05-29T10:53:36;17.40;73.20
59881;DHT22;45751;51.380;10.326;2023-05-29T10:56:15;17.50;72.80
59881;DHT22;45751;51.380;10.326;2023-05-29T10:58:43;17.50;71.60
59881;DHT22;45751;51.380;10.326;2023-05-29T11:01:10;17.60;72.90
59881;DHT22;45751;51.380;10.326;2023-05-29T11:03:40;17.60;72.60
59881;DHT22;45751;51.380;10.326;2023-05-29T11:06:20;17.70;72.30
59881;DHT22;45751;51.380;10.326;2023-05-29T11:08:53;17.70;71.80
59881;DHT22;45751;51.380;10.326;2023-05-29T11:13:55;17.80;72.30
59881;DHT22;45751;51.380;10.326;2023-05-29T11:18:52;17.90;72.20
59881;DHT22;45751;51.380;10.326;2023-05-29T11:21:44;17.90;71.50
59881;DHT22;45751;51.380;10.326;2023-05-29T11:26:47;18.00;70.00
59881;DHT22;45751;51.380;10.326;2023-05-29T11:29:14;18.00;70.90
59881;DHT22;45751;51.380;10.326;2023-05-29T11:31:41;18.10;71.40
59881;DHT22;45751;51.380;10.326;2023-05-29T11:34:14;18.10;72.40
59881;DHT22;45751;51.380;10.326;2023-05-29T11:36:41;18.20;70.40
59881;DHT22;45751;51.380;10.326;2023-05-29T11:39:10;18.30;71.70
59881;DHT22;45751;51.380;10.326;2023-05-29T11:41:37;18.30;72.60
59881;DHT22;45751;51.380;10.326;2023-05-29T11:44:04;18.40;70.50
59881;DHT22;45751;51.380;10.326;2023-05-29T11:46:34;18.40;69.40
59881;DHT22;45751;51.380;10.326;2023-05-29T11:49:01;18.40;70.10
59881;DHT22;45751;51.380;10.326;2023-05-29T11:51:28;18.50;68.40
59881;DHT22;45751;51.380;10.326;2023-05-29T11:53:56;18.50;67.40
59881;DHT22;45751;51.380;10.326;2023-05-29T11:56:27;18.50;68.70
59881;DHT22;45751;51.380;10.326;2023-05-29T11:58:55;18.60;70.80
59881;DHT22;45751;51.380;10.326;2023-05-29T12:01:24;18.70;69.00
59881;DHT22;45751;51.380;10.326;2023-05-29T12:03:52;18.80;66.80
59881;DHT22;45751;51.380;10.326;2023-05-29T12:06:35;18.90;66.90
59881;DHT22;45751;51.380;10.326;2023-05-29T12:09:05;18.90;67.20
59881;DHT22;45751;51.380;10.326;2023-05-29T12:11:34;19.00;67.50
59881;DHT22;45751;51.380;10.326;2023-05-29T12:14:01;19.10;65.70
59881;DHT22;45751;51.380;10.326;2023-05-29T12:16:30;19.20;64.90
59881;DHT22;45751;51.380;10.326;2023-05-29T12:18:59;19.20;64.50
59881;DHT22;45751;51.380;10.326;2023-05-29T12:21:27;19.20;64.80
59881;DHT22;45751;51.380;10.326;2023-05-29T12:23:54;19.30;65.00
59881;DHT22;45751;51.380;10.326;2023-05-29T12:26:36;19.40;64.60
59881;DHT22;45751;51.380;10.326;2023-05-29T12:29:04;19.40;63.80
59881;DHT22;45751;51.380;10.326;2023-05-29T12:31:32;19.50;62.40
59881;DHT22;45751;51.380;10.326;2023-05-29T12:34:02;19.50;62.20
59881;DHT22;45751;51.380;10.326;2023-05-29T12:36:33;19.50;61.40
59881;DHT22;45751;51.380;10.326;2023-05-29T12:39:06;19.50;61.90
59881;DHT22;45751;51.380;10.326;2023-05-29T12:41:37;19.50;61.60
59881;DHT22;45751;51.380;10.326;2023-05-29T12:44:05;19.50;61.50
59881;DHT22;45751;51.380;10.326;2023-05-29T12:46:37;19.60;61.30
59881;DHT22;45751;51.380;10.326;2023-05-29T12:49:18;19.70;61.80
59881;DHT22;45751;51.380;10.326;2023-05-29T12:51:50;19.80;60.80
59881;DHT22;45751;51.380;10.326;2023-05-29T12:54:19;19.90;61.70
59881;DHT22;45751;51.380;10.326;2023-05-29T12:56:45;19.90;61.30
59881;DHT22;45751;51.380;10.326;2023-05-29T12:59:13;20.00;59.70
59881;DHT22;45751;51.380;10.326;2023-05-29T13:01:41;19.90;58.60
59881;DHT22;45751;51.380;10.326;2023-05-29T13:04:08;19.90;58.80
59881;DHT22;45751;51.380;10.326;2023-05-29T13:06:37;19.90;59.20
59881;DHT22;45751;51.380;10.326;2023-05-29T13:09:04;20.00;58.10
59881;DHT22;45751;51.380;10.326;2023-05-29T13:11:35;20.00;58.30
59881;DHT22;45751;51.380;10.326;2023-05-29T13:14:04;20.10;57.30
59881;DHT22;45751;51.380;10.326;2023-05-29T13:16:31;20.20;57.90
59881;DHT22;45751;51.380;10.326;2023-05-29T13:18:58;20.20;57.70
59881;DHT22;45751;51.380;10.326;2023-05-29T13:21:25;20.30;57.70
59881;DHT22;45751;51.380;10.326;2023-05-29T13:23:52;20.40;56.60
59881;DHT22;45751;51.380;10.326;2023-05-29T13:26:19;20.50;57.30
59881;DHT22;45751;51.380;10.326;2023-05-29T13:28:48;20.60;56.80
59881;DHT22;45751;51.380;10.326;2023-05-29T13:31:15;20.70;55.90
59881;DHT22;45751;51.380;10.326;2023-05-29T13:33:42;20.80;56.60
59881;DHT22;45751;51.380;10.326;2023-05-29T13:36:09;20.90;55.70
59881;DHT22;45751;51.380;10.326;2023-05-29T13:38:36;21.00;55.20
59881;DHT22;45751;51.380;10.326;2023-05-29T13:41:03;21.10;54.40
59881;DHT22;45751;51.380;10.326;2023-05-29T13:43:30;21.10;53.40
59881;DHT22;45751;51.380;10.326;2023-05-29T13:46:11;21.20;54.40
59881;DHT22;45751;51.380;10.326;2023-05-29T13:48:38;21.20;54.30
59881;DHT22;45751;51.380;10.326;2023-05-29T13:51:05;21.20;53.30
59881;DHT22;45751;51.380;10.326;2023-05-29T13:53:32;21.30;53.10
59881;DHT22;45751;51.380;10.326;2023-05-29T13:55:59;21.30;53.50
59881;DHT22;45751;51.380;10.326;2023-05-29T13:58:26;21.40;52.60
59881;DHT22;45751;51.380;10.326;2023-05-29T14:00:53;21.40;52.30
59881;DHT22;45751;51.380;10.326;2023-05-29T14:03:21;21.40;52.10
59881;DHT22;45751;51.380;10.326;2023-05-29T14:05:50;21.40;53.30
59881;DHT22;45751;51.380;10.326;2023-05-29T14:08:17;21.30;52.50
59881;DHT22;45751;51.380;10.326;2023-05-29T14:10:44;21.50;52.70
59881;DHT22;45751;51.380;10.326;2023-05-29T14:13:12;21.40;52.20
59881;DHT22;45751;51.380;10.326;2023-05-29T14:15:39;21.50;51.90
59881;DHT22;45751;51.380;10.326;2023-05-29T14:18:07;21.60;50.50
59881;DHT22;45751;51.380;10.326;2023-05-29T14:20:35;21.60;49.90
59881;DHT22;45751;51.380;10.326;2023-05-29T14:23:02;21.60;50.00
59881;DHT22;45751;51.380;10.326;2023-05-29T14:25:29;21.70;50.60
59881;DHT22;45751;51.380;10.326;2023-05-29T14:27:56;21.80;49.00
59881;DHT22;45751;51.380;10.326;2023-05-29T14:30:23;21.70;49.70
59881;DHT22;45751;51.380;10.326;2023-05-29T14:32:50;21.80;49.30
59881;DHT22;45751;51.380;10.326;2023-05-29T14:35:17;21.80;49.50
59881;DHT22;45751;51.380;10.326;2023-05-29T14:37:44;21.80;49.50
59881;DHT22;45751;51.380;10.326;2023-05-29T14:40:11;21.80;49.00
59881;DHT22;45751;51.380;10.326;2023-05-29T14:42:38;21.90;48.90
59881;DHT22;45751;51.380;10.326;2023-05-29T14:45:05;22.00;49.70
59881;DHT22;45751;51.380;10.326;2023-05-29T14:47:33;22.10;49.30
59881;DHT22;45751;51.380;10.326;2023-05-29T14:50:00;22.10;48.20
59881;DHT22;45751;51.380;10.326;2023-05-29T14:52:26;22.20;48.40
59881;DHT22;45751;51.380;10.326;2023-05-29T14:54:53;22.30;47.30
59881;DHT22;45751;51.380;10.326;2023-05-29T14:57:20;22.30;47.20
59881;DHT22;45751;51.380;10.326;2023-05-29T14:59:47;22.20;47.30
59881;DHT22;45751;51.380;10.326;2023-05-29T15:02:14;22.20;47.00
59881;DHT22;45751;51.380;10.326;2023-05-29T15:04:41;22.30;46.90
59881;DHT22;45751;51.380;10.326;2023-05-29T15:07:08;22.30;47.10
59881;DHT22;45751;51.380;10.326;2023-05-29T15:09:35;22.30;47.60
59881;DHT22;45751;51.380;10.326;2023-05-29T15:12:03;22.40;47.00
59881;DHT22;45751;51.380;10.326;2023-05-29T15:14:30;22.50;46.00
59881;DHT22;45751;51.380;10.326;2023-05-29T15:16:56;22.50;46.40
59881;DHT22;45751;51.380;10.326;2023-05-29T15:19:24;22.50;45.90
59881;DHT22;45751;51.380;10.326;2023-05-29T15:21:50;22.50;46.10
59881;DHT22;45751;51.380;10.326;2023-05-29T15:24:17;22.60;45.80
59881;DHT22;45751;51.380;10.326;2023-05-29T15:26:44;22.50;45.50
59881;DHT22;45751;51.380;10.326;2023-05-29T15:29:11;22.70;45.40
59881;DHT22;45751;51.380;10.326;2023-05-29T15:31:38;22.80;45.20
59881;DHT22;45751;51.380;10.326;2023-05-29T15:34:05;22.80;44.40
59881;DHT22;45751;51.380;10.326;2023-05-29T15:36:32;22.80;44.50
59881;DHT22;45751;51.380;10.326;2023-05-29T15:38:59;22.80;44.30
59881;DHT22;45751;51.380;10.326;2023-05-29T15:41:26;22.90;43.90
59881;DHT22;45751;51.380;10.326;2023-05-29T15:43:55;22.90;44.00
59881;DHT22;45751;51.380;10.326;2023-05-29T15:46:27;22.90;43.80
59881;DHT22;45751;51.380;10.326;2023-05-29T15:48:55;23.00;43.80
59881;DHT22;45751;51.380;10.326;2023-05-29T15:51:22;23.00;43.10